• images/banner/banner1.jpg
  • images/banner/banner2.jpg

Team Member Login

Aviation Weather

[source: ADDS]
METAR
EGVN 231750Z 32009KT 9999 FEW040 11/05 Q1026 NOSIG =
TAF EGVN 231622Z 2318/2418 33012KT 9999 FEW035
TAF
TAF EGVN 231622Z 2318/2418 33012KT 9999 FEW035 =